sensor_id;sensor_type;location;lat;lon;timestamp;temperature;humidity
2389;DHT22;1205;47.984;7.668;2022-09-01T00:02:01;18.10;99.90
2389;DHT22;1205;47.984;7.668;2022-09-01T00:04:36;18.20;99.90
2389;DHT22;1205;47.984;7.668;2022-09-01T00:07:06;18.10;99.90
2389;DHT22;1205;47.984;7.668;2022-09-01T00:09:32;18.10;99.90
2389;DHT22;1205;47.984;7.668;2022-09-01T00:11:59;18.20;99.90
2389;DHT22;1205;47.984;7.668;2022-09-01T00:14:28;18.20;99.90
2389;DHT22;1205;47.984;7.668;2022-09-01T00:16:54;18.10;99.90
2389;DHT22;1205;47.984;7.668;2022-09-01T00:19:21;18.00;99.90
2389;DHT22;1205;47.984;7.668;2022-09-01T00:21:47;18.00;99.90
2389;DHT22;1205;47.984;7.668;2022-09-01T00:24:15;18.00;99.90
2389;DHT22;1205;47.984;7.668;2022-09-01T00:26:42;18.00;99.90
2389;DHT22;1205;47.984;7.668;2022-09-01T00:29:08;18.00;99.90
2389;DHT22;1205;47.984;7.668;2022-09-01T00:31:34;17.90;99.90
2389;DHT22;1205;47.984;7.668;2022-09-01T00:34:00;17.90;99.90
2389;DHT22;1205;47.984;7.668;2022-09-01T00:36:26;17.80;99.90
2389;DHT22;1205;47.984;7.668;2022-09-01T00:38:52;17.90;99.90
2389;DHT22;1205;47.984;7.668;2022-09-01T00:41:22;17.90;99.90
2389;DHT22;1205;47.984;7.668;2022-09-01T00:43:51;17.90;99.90
2389;DHT22;1205;47.984;7.668;2022-09-01T00:46:24;17.90;99.90
2389;DHT22;1205;47.984;7.668;2022-09-01T00:51:40;17.90;99.90
2389;DHT22;1205;47.984;7.668;2022-09-01T00:54:09;17.90;99.90
2389;DHT22;1205;47.984;7.668;2022-09-01T00:56:38;17.80;99.90
2389;DHT22;1205;47.984;7.668;2022-09-01T00:59:05;17.70;99.90
2389;DHT22;1205;47.984;7.668;2022-09-01T01:01:32;17.60;99.90
2389;DHT22;1205;47.984;7.668;2022-09-01T01:04:04;17.60;99.90
2389;DHT22;1205;47.984;7.668;2022-09-01T01:06:31;17.60;99.90
2389;DHT22;1205;47.984;7.668;2022-09-01T01:08:59;17.60;99.90
2389;DHT22;1205;47.984;7.668;2022-09-01T01:11:28;17.60;99.90
2389;DHT22;1205;47.984;7.668;2022-09-01T01:14:04;17.70;99.90
2389;DHT22;1205;47.984;7.668;2022-09-01T01:16:43;17.60;99.90
2389;DHT22;1205;47.984;7.668;2022-09-01T01:22:07;17.60;99.90
2389;DHT22;1205;47.984;7.668;2022-09-01T01:24:53;17.50;99.90
2389;DHT22;1205;47.984;7.668;2022-09-01T01:27:20;17.50;99.90
2389;DHT22;1205;47.984;7.668;2022-09-01T01:29:46;17.50;99.90
2389;DHT22;1205;47.984;7.668;2022-09-01T01:32:13;17.40;99.90
2389;DHT22;1205;47.984;7.668;2022-09-01T01:34:39;17.40;99.90
2389;DHT22;1205;47.984;7.668;2022-09-01T01:37:07;17.40;99.90
2389;DHT22;1205;47.984;7.668;2022-09-01T01:39:35;17.20;99.90
2389;DHT22;1205;47.984;7.668;2022-09-01T01:42:05;17.50;99.90
2389;DHT22;1205;47.984;7.668;2022-09-01T01:44:32;17.30;99.90
2389;DHT22;1205;47.984;7.668;2022-09-01T01:46:58;17.30;99.90
2389;DHT22;1205;47.984;7.668;2022-09-01T01:49:25;17.30;99.90
2389;DHT22;1205;47.984;7.668;2022-09-01T01:51:55;17.20;99.90
2389;DHT22;1205;47.984;7.668;2022-09-01T01:54:23;17.20;99.90
2389;DHT22;1205;47.984;7.668;2022-09-01T01:56:50;17.10;99.90
2389;DHT22;1205;47.984;7.668;2022-09-01T01:59:15;17.20;99.90
2389;DHT22;1205;47.984;7.668;2022-09-01T02:01:43;17.20;99.90
2389;DHT22;1205;47.984;7.668;2022-09-01T02:04:13;17.20;99.90
2389;DHT22;1205;47.984;7.668;2022-09-01T02:06:41;17.10;99.90
2389;DHT22;1205;47.984;7.668;2022-09-01T02:09:11;17.20;99.90
2389;DHT22;1205;47.984;7.668;2022-09-01T02:11:38;17.10;99.90
2389;DHT22;1205;47.984;7.668;2022-09-01T02:14:05;17.10;99.90
2389;DHT22;1205;47.984;7.668;2022-09-01T02:16:31;17.00;99.90
2389;DHT22;1205;47.984;7.668;2022-09-01T02:18:58;17.10;99.90
2389;DHT22;1205;47.984;7.668;2022-09-01T02:21:25;17.00;99.90
2389;DHT22;1205;47.984;7.668;2022-09-01T02:23:55;17.00;99.90
2389;DHT22;1205;47.984;7.668;2022-09-01T02:26:32;16.90;99.90
2389;DHT22;1205;47.984;7.668;2022-09-01T02:29:00;16.80;99.90
2389;DHT22;1205;47.984;7.668;2022-09-01T02:31:33;16.90;99.90
2389;DHT22;1205;47.984;7.668;2022-09-01T02:34:06;16.80;99.90
2389;DHT22;1205;47.984;7.668;2022-09-01T02:36:35;16.80;99.90
2389;DHT22;1205;47.984;7.668;2022-09-01T02:39:02;16.80;99.90
2389;DHT22;1205;47.984;7.668;2022-09-01T02:41:28;16.80;99.90
2389;DHT22;1205;47.984;7.668;2022-09-01T02:43:58;16.70;99.90
2389;DHT22;1205;47.984;7.668;2022-09-01T02:46:27;16.70;99.90
2389;DHT22;1205;47.984;7.668;2022-09-01T02:48:54;16.80;99.90
2389;DHT22;1205;47.984;7.668;2022-09-01T02:51:22;16.70;99.90
2389;DHT22;1205;47.984;7.668;2022-09-01T02:53:50;16.80;99.90
2389;DHT22;1205;47.984;7.668;2022-09-01T02:56:19;16.90;99.90
2389;DHT22;1205;47.984;7.668;2022-09-01T02:58:47;16.70;99.90
2389;DHT22;1205;47.984;7.668;2022-09-01T03:01:18;16.60;99.90
2389;DHT22;1205;47.984;7.668;2022-09-01T03:03:46;16.60;99.90
2389;DHT22;1205;47.984;7.668;2022-09-01T03:06:12;16.60;99.90
2389;DHT22;1205;47.984;7.668;2022-09-01T03:08:39;16.70;99.90
2389;DHT22;1205;47.984;7.668;2022-09-01T03:11:06;16.50;99.90
2389;DHT22;1205;47.984;7.668;2022-09-01T03:13:37;16.60;99.90
2389;DHT22;1205;47.984;7.668;2022-09-01T03:16:04;16.70;99.90
2389;DHT22;1205;47.984;7.668;2022-09-01T03:18:30;16.60;99.90
2389;DHT22;1205;47.984;7.668;2022-09-01T03:20:56;16.50;99.90
2389;DHT22;1205;47.984;7.668;2022-09-01T03:23:22;16.40;99.90
2389;DHT22;1205;47.984;7.668;2022-09-01T03:25:50;16.50;99.90
2389;DHT22;1205;47.984;7.668;2022-09-01T03:28:16;16.60;99.90
2389;DHT22;1205;47.984;7.668;2022-09-01T03:30:53;16.60;99.90
2389;DHT22;1205;47.984;7.668;2022-09-01T03:33:20;16.70;99.90
2389;DHT22;1205;47.984;7.668;2022-09-01T03:35:47;16.60;99.90
2389;DHT22;1205;47.984;7.668;2022-09-01T03:38:13;16.50;99.90
2389;DHT22;1205;47.984;7.668;2022-09-01T03:40:58;16.50;99.90
2389;DHT22;1205;47.984;7.668;2022-09-01T03:43:30;16.50;99.90
2389;DHT22;1205;47.984;7.668;2022-09-01T03:45:57;16.30;99.90
2389;DHT22;1205;47.984;7.668;2022-09-01T03:48:30;16.40;99.90
2389;DHT22;1205;47.984;7.668;2022-09-01T03:50:58;16.50;99.90
2389;DHT22;1205;47.984;7.668;2022-09-01T03:53:29;16.60;99.90
2389;DHT22;1205;47.984;7.668;2022-09-01T03:55:55;16.50;99.90
2389;DHT22;1205;47.984;7.668;2022-09-01T03:58:22;16.70;99.90
2389;DHT22;1205;47.984;7.668;2022-09-01T04:00:52;16.60;99.90
2389;DHT22;1205;47.984;7.668;2022-09-01T04:03:24;16.50;99.90
2389;DHT22;1205;47.984;7.668;2022-09-01T04:05:51;16.60;99.90
2389;DHT22;1205;47.984;7.668;2022-09-01T04:08:19;16.80;99.90
2389;DHT22;1205;47.984;7.668;2022-09-01T04:10:46;16.70;99.90
2389;DHT22;1205;47.984;7.668;2022-09-01T04:13:34;16.70;99.90
2389;DHT22;1205;47.984;7.668;2022-09-01T04:16:00;16.50;99.90
2389;DHT22;1205;47.984;7.668;2022-09-01T04:18:25;16.70;99.90
2389;DHT22;1205;47.984;7.668;2022-09-01T04:20:53;16.70;99.90
2389;DHT22;1205;47.984;7.668;2022-09-01T04:23:21;16.70;99.90
2389;DHT22;1205;47.984;7.668;2022-09-01T04:26:10;16.80;99.90
2389;DHT22;1205;47.984;7.668;2022-09-01T04:28:44;16.70;99.90
2389;DHT22;1205;47.984;7.668;2022-09-01T04:31:13;16.60;99.90
2389;DHT22;1205;47.984;7.668;2022-09-01T04:33:42;16.50;99.90
2389;DHT22;1205;47.984;7.668;2022-09-01T04:36:25;16.60;99.90
2389;DHT22;1205;47.984;7.668;2022-09-01T04:38:57;16.80;99.90
2389;DHT22;1205;47.984;7.668;2022-09-01T04:41:26;16.90;99.90
2389;DHT22;1205;47.984;7.668;2022-09-01T04:43:52;16.60;99.90
2389;DHT22;1205;47.984;7.668;2022-09-01T04:46:22;16.60;99.90
2389;DHT22;1205;47.984;7.668;2022-09-01T04:48:52;16.60;99.90
2389;DHT22;1205;47.984;7.668;2022-09-01T04:51:18;16.60;99.90
2389;DHT22;1205;47.984;7.668;2022-09-01T04:53:45;16.80;99.90
2389;DHT22;1205;47.984;7.668;2022-09-01T04:56:15;17.00;99.90
2389;DHT22;1205;47.984;7.668;2022-09-01T04:58:46;16.80;99.90
2389;DHT22;1205;47.984;7.668;2022-09-01T05:01:14;16.70;99.90
2389;DHT22;1205;47.984;7.668;2022-09-01T05:03:40;16.70;99.90
2389;DHT22;1205;47.984;7.668;2022-09-01T05:06:16;16.60;99.90
2389;DHT22;1205;47.984;7.668;2022-09-01T05:08:42;16.70;99.90
2389;DHT22;1205;47.984;7.668;2022-09-01T05:11:10;16.90;99.90
2389;DHT22;1205;47.984;7.668;2022-09-01T05:13:36;16.90;99.90
2389;DHT22;1205;47.984;7.668;2022-09-01T05:16:07;16.80;99.90
2389;DHT22;1205;47.984;7.668;2022-09-01T05:18:41;16.70;99.90
2389;DHT22;1205;47.984;7.668;2022-09-01T05:21:10;17.20;99.90
2389;DHT22;1205;47.984;7.668;2022-09-01T05:23:39;17.40;99.90
2389;DHT22;1205;47.984;7.668;2022-09-01T05:26:11;17.70;99.90
2389;DHT22;1205;47.984;7.668;2022-09-01T05:28:42;17.40;99.90
2389;DHT22;1205;47.984;7.668;2022-09-01T05:31:08;17.70;99.90
2389;DHT22;1205;47.984;7.668;2022-09-01T05:33:35;17.40;99.90
2389;DHT22;1205;47.984;7.668;2022-09-01T05:36:02;17.40;99.90
2389;DHT22;1205;47.984;7.668;2022-09-01T05:38:32;17.40;99.90
2389;DHT22;1205;47.984;7.668;2022-09-01T05:41:00;17.50;99.90
2389;DHT22;1205;47.984;7.668;2022-09-01T05:43:29;17.40;99.90
2389;DHT22;1205;47.984;7.668;2022-09-01T05:45:58;17.30;99.90
2389;DHT22;1205;47.984;7.668;2022-09-01T05:48:25;17.20;99.90
2389;DHT22;1205;47.984;7.668;2022-09-01T05:50:52;17.30;99.90
2389;DHT22;1205;47.984;7.668;2022-09-01T05:53:22;17.30;99.90
2389;DHT22;1205;47.984;7.668;2022-09-01T05:55:51;17.50;99.90
2389;DHT22;1205;47.984;7.668;2022-09-01T05:58:23;17.70;99.90
2389;DHT22;1205;47.984;7.668;2022-09-01T06:00:50;17.40;99.90
2389;DHT22;1205;47.984;7.668;2022-09-01T06:03:18;17.70;99.90
2389;DHT22;1205;47.984;7.668;2022-09-01T06:05:43;17.60;99.90
2389;DHT22;1205;47.984;7.668;2022-09-01T06:08:12;17.80;99.90
2389;DHT22;1205;47.984;7.668;2022-09-01T06:10:40;17.90;99.90
2389;DHT22;1205;47.984;7.668;2022-09-01T06:13:07;17.90;99.90
2389;DHT22;1205;47.984;7.668;2022-09-01T06:15:34;18.00;99.90
2389;DHT22;1205;47.984;7.668;2022-09-01T06:18:04;17.70;99.90
2389;DHT22;1205;47.984;7.668;2022-09-01T06:20:30;17.80;99.90
2389;DHT22;1205;47.984;7.668;2022-09-01T06:22:56;17.70;99.90
2389;DHT22;1205;47.984;7.668;2022-09-01T06:25:22;17.60;99.90
2389;DHT22;1205;47.984;7.668;2022-09-01T06:27:48;17.80;99.90
2389;DHT22;1205;47.984;7.668;2022-09-01T06:30:16;17.70;99.90
2389;DHT22;1205;47.984;7.668;2022-09-01T06:32:51;17.80;99.90
2389;DHT22;1205;47.984;7.668;2022-09-01T06:35:17;17.90;99.90
2389;DHT22;1205;47.984;7.668;2022-09-01T06:37:44;17.80;99.90
2389;DHT22;1205;47.984;7.668;2022-09-01T06:40:12;17.70;99.90
2389;DHT22;1205;47.984;7.668;2022-09-01T06:42:48;17.70;99.90
2389;DHT22;1205;47.984;7.668;2022-09-01T06:45:20;17.80;99.90
2389;DHT22;1205;47.984;7.668;2022-09-01T06:47:48;17.70;99.90
2389;DHT22;1205;47.984;7.668;2022-09-01T06:50:17;17.70;99.90
2389;DHT22;1205;47.984;7.668;2022-09-01T06:52:44;17.80;99.90
2389;DHT22;1205;47.984;7.668;2022-09-01T06:55:11;18.00;99.90
2389;DHT22;1205;47.984;7.668;2022-09-01T06:57:38;17.80;99.90
2389;DHT22;1205;47.984;7.668;2022-09-01T07:00:07;17.90;99.90
2389;DHT22;1205;47.984;7.668;2022-09-01T07:02:37;18.10;99.90
2389;DHT22;1205;47.984;7.668;2022-09-01T07:05:04;18.20;99.90
2389;DHT22;1205;47.984;7.668;2022-09-01T07:07:30;18.30;99.90
2389;DHT22;1205;47.984;7.668;2022-09-01T07:09:58;18.40;99.90
2389;DHT22;1205;47.984;7.668;2022-09-01T07:12:24;18.50;99.90
2389;DHT22;1205;47.984;7.668;2022-09-01T07:14:49;18.50;99.90
2389;DHT22;1205;47.984;7.668;2022-09-01T07:17:16;18.70;99.90
2389;DHT22;1205;47.984;7.668;2022-09-01T07:19:42;18.70;99.90
2389;DHT22;1205;47.984;7.668;2022-09-01T07:22:08;19.10;99.90
2389;DHT22;1205;47.984;7.668;2022-09-01T07:24:34;19.50;99.90
2389;DHT22;1205;47.984;7.668;2022-09-01T07:27:00;19.60;99.90
2389;DHT22;1205;47.984;7.668;2022-09-01T07:29:26;19.70;99.90
2389;DHT22;1205;47.984;7.668;2022-09-01T07:31:52;19.70;99.90
2389;DHT22;1205;47.984;7.668;2022-09-01T07:34:20;19.60;99.90
2389;DHT22;1205;47.984;7.668;2022-09-01T07:36:46;19.70;99.90
2389;DHT22;1205;47.984;7.668;2022-09-01T07:39:12;19.80;99.90
2389;DHT22;1205;47.984;7.668;2022-09-01T07:41:39;19.70;99.90
2389;DHT22;1205;47.984;7.668;2022-09-01T07:44:07;19.80;99.90
2389;DHT22;1205;47.984;7.668;2022-09-01T07:46:35;20.00;99.90
2389;DHT22;1205;47.984;7.668;2022-09-01T07:49:00;20.00;99.90
2389;DHT22;1205;47.984;7.668;2022-09-01T07:51:27;20.40;99.90
2389;DHT22;1205;47.984;7.668;2022-09-01T07:53:54;20.40;99.90
2389;DHT22;1205;47.984;7.668;2022-09-01T07:56:22;20.50;99.90
2389;DHT22;1205;47.984;7.668;2022-09-01T07:58:50;20.20;99.90
2389;DHT22;1205;47.984;7.668;2022-09-01T08:01:18;20.20;99.90
2389;DHT22;1205;47.984;7.668;2022-09-01T08:03:47;20.10;99.90
2389;DHT22;1205;47.984;7.668;2022-09-01T08:06:15;20.00;99.90
2389;DHT22;1205;47.984;7.668;2022-09-01T08:08:44;20.10;99.90
2389;DHT22;1205;47.984;7.668;2022-09-01T08:11:15;19.90;99.90
2389;DHT22;1205;47.984;7.668;2022-09-01T08:13:42;20.20;99.90
2389;DHT22;1205;47.984;7.668;2022-09-01T08:16:08;20.60;99.90
2389;DHT22;1205;47.984;7.668;2022-09-01T08:18:34;20.70;99.90
2389;DHT22;1205;47.984;7.668;2022-09-01T08:21:08;20.70;99.90
2389;DHT22;1205;47.984;7.668;2022-09-01T08:23:34;20.40;99.90
2389;DHT22;1205;47.984;7.668;2022-09-01T08:26:13;20.70;99.90
2389;DHT22;1205;47.984;7.668;2022-09-01T08:28:39;20.50;99.90
2389;DHT22;1205;47.984;7.668;2022-09-01T08:31:07;20.40;99.90
2389;DHT22;1205;47.984;7.668;2022-09-01T08:33:38;20.30;99.90
2389;DHT22;1205;47.984;7.668;2022-09-01T08:36:09;20.40;99.90
2389;DHT22;1205;47.984;7.668;2022-09-01T08:38:35;20.70;99.90
2389;DHT22;1205;47.984;7.668;2022-09-01T08:41:02;20.80;99.90
2389;DHT22;1205;47.984;7.668;2022-09-01T08:46:13;21.00;99.90
2389;DHT22;1205;47.984;7.668;2022-09-01T08:48:49;21.20;99.90
2389;DHT22;1205;47.984;7.668;2022-09-01T08:51:31;21.10;99.90
2389;DHT22;1205;47.984;7.668;2022-09-01T08:54:13;21.00;99.90
2389;DHT22;1205;47.984;7.668;2022-09-01T08:56:43;20.80;99.90
2389;DHT22;1205;47.984;7.668;2022-09-01T08:59:10;21.10;99.90
2389;DHT22;1205;47.984;7.668;2022-09-01T09:04:38;21.00;99.90
2389;DHT22;1205;47.984;7.668;2022-09-01T09:10:53;20.70;99.90
2389;DHT22;1205;47.984;7.668;2022-09-01T09:16:07;20.80;99.90
2389;DHT22;1205;47.984;7.668;2022-09-01T09:21:32;20.50;99.90
2389;DHT22;1205;47.984;7.668;2022-09-01T09:26:54;20.90;99.90
2389;DHT22;1205;47.984;7.668;2022-09-01T09:29:20;20.90;99.90
2389;DHT22;1205;47.984;7.668;2022-09-01T09:31:47;21.10;99.90
2389;DHT22;1205;47.984;7.668;2022-09-01T09:36:52;20.90;99.90
2389;DHT22;1205;47.984;7.668;2022-09-01T09:39:17;20.90;99.90
2389;DHT22;1205;47.984;7.668;2022-09-01T09:42:04;21.10;99.90
2389;DHT22;1205;47.984;7.668;2022-09-01T09:44:43;21.00;99.90
2389;DHT22;1205;47.984;7.668;2022-09-01T09:47:20;21.30;99.90
2389;DHT22;1205;47.984;7.668;2022-09-01T09:50:32;21.40;99.90
2389;DHT22;1205;47.984;7.668;2022-09-01T09:56:03;21.50;99.90
2389;DHT22;1205;47.984;7.668;2022-09-01T09:58:36;21.70;99.90
2389;DHT22;1205;47.984;7.668;2022-09-01T10:01:11;21.40;99.90
2389;DHT22;1205;47.984;7.668;2022-09-01T10:03:46;21.20;99.90
2389;DHT22;1205;47.984;7.668;2022-09-01T10:06:40;21.20;99.90
2389;DHT22;1205;47.984;7.668;2022-09-01T10:09:16;21.00;99.90
2389;DHT22;1205;47.984;7.668;2022-09-01T10:11:53;21.10;99.90
2389;DHT22;1205;47.984;7.668;2022-09-01T10:14:34;21.20;99.90
2389;DHT22;1205;47.984;7.668;2022-09-01T10:17:08;21.20;99.90
2389;DHT22;1205;47.984;7.668;2022-09-01T10:19:35;21.00;99.90
2389;DHT22;1205;47.984;7.668;2022-09-01T10:22:04;21.10;99.90
2389;DHT22;1205;47.984;7.668;2022-09-01T10:24:35;21.00;99.90
2389;DHT22;1205;47.984;7.668;2022-09-01T10:27:07;21.10;99.90
2389;DHT22;1205;47.984;7.668;2022-09-01T10:29:55;21.20;99.90
2389;DHT22;1205;47.984;7.668;2022-09-01T10:32:26;21.30;99.90
2389;DHT22;1205;47.984;7.668;2022-09-01T10:34:54;21.30;99.90
2389;DHT22;1205;47.984;7.668;2022-09-01T10:37:21;21.40;99.90
2389;DHT22;1205;47.984;7.668;2022-09-01T10:40:20;21.40;99.90
2389;DHT22;1205;47.984;7.668;2022-09-01T10:45:46;21.30;99.90
2389;DHT22;1205;47.984;7.668;2022-09-01T10:48:28;21.30;99.90
2389;DHT22;1205;47.984;7.668;2022-09-01T10:53:46;21.30;99.90
2389;DHT22;1205;47.984;7.668;2022-09-01T10:56:24;21.40;99.90
2389;DHT22;1205;47.984;7.668;2022-09-01T11:04:08;21.50;99.90
2389;DHT22;1205;47.984;7.668;2022-09-01T11:15:01;21.90;99.90
2389;DHT22;1205;47.984;7.668;2022-09-01T11:17:35;21.90;99.90
2389;DHT22;1205;47.984;7.668;2022-09-01T11:20:25;22.00;99.90
2389;DHT22;1205;47.984;7.668;2022-09-01T11:23:07;22.00;99.90
2389;DHT22;1205;47.984;7.668;2022-09-01T11:25:42;22.10;99.90
2389;DHT22;1205;47.984;7.668;2022-09-01T11:33:41;22.30;99.90
2389;DHT22;1205;47.984;7.668;2022-09-01T11:44:25;22.50;99.90
2389;DHT22;1205;47.984;7.668;2022-09-01T11:46:51;22.60;99.90
2389;DHT22;1205;47.984;7.668;2022-09-01T11:49:34;22.60;99.90
2389;DHT22;1205;47.984;7.668;2022-09-01T11:52:01;22.70;98.90
2389;DHT22;1205;47.984;7.668;2022-09-01T11:54:28;22.80;98.90
2389;DHT22;1205;47.984;7.668;2022-09-01T11:57:26;22.80;98.60
2389;DHT22;1205;47.984;7.668;2022-09-01T11:59:53;22.80;98.50
2389;DHT22;1205;47.984;7.668;2022-09-01T12:02:43;22.80;98.10
2389;DHT22;1205;47.984;7.668;2022-09-01T12:05:30;22.90;98.40
2389;DHT22;1205;47.984;7.668;2022-09-01T12:07:57;23.10;98.20
2389;DHT22;1205;47.984;7.668;2022-09-01T12:10:32;23.10;98.10
2389;DHT22;1205;47.984;7.668;2022-09-01T12:15:26;23.20;97.10
2389;DHT22;1205;47.984;7.668;2022-09-01T12:17:53;23.20;97.00
2389;DHT22;1205;47.984;7.668;2022-09-01T12:20:35;23.10;96.60
2389;DHT22;1205;47.984;7.668;2022-09-01T12:26:00;23.20;95.80
2389;DHT22;1205;47.984;7.668;2022-09-01T12:28:28;23.30;96.30
2389;DHT22;1205;47.984;7.668;2022-09-01T12:31:00;23.40;96.40
2389;DHT22;1205;47.984;7.668;2022-09-01T12:33:26;23.40;96.00
2389;DHT22;1205;47.984;7.668;2022-09-01T12:36:33;23.40;95.90
2389;DHT22;1205;47.984;7.668;2022-09-01T12:39:33;23.50;95.80
2389;DHT22;1205;47.984;7.668;2022-09-01T12:47:06;23.70;95.50
2389;DHT22;1205;47.984;7.668;2022-09-01T12:49:46;23.70;95.30
2389;DHT22;1205;47.984;7.668;2022-09-01T12:57:33;23.80;95.20
2389;DHT22;1205;47.984;7.668;2022-09-01T13:00:16;23.90;95.20
2389;DHT22;1205;47.984;7.668;2022-09-01T13:02:46;23.90;94.80
2389;DHT22;1205;47.984;7.668;2022-09-01T13:08:00;24.10;94.30
2389;DHT22;1205;47.984;7.668;2022-09-01T13:10:29;24.00;93.80
2389;DHT22;1205;47.984;7.668;2022-09-01T13:12:56;24.10;94.70
2389;DHT22;1205;47.984;7.668;2022-09-01T13:15:22;24.10;94.40
2389;DHT22;1205;47.984;7.668;2022-09-01T13:17:51;24.20;94.00
2389;DHT22;1205;47.984;7.668;2022-09-01T13:20:17;24.30;93.60
2389;DHT22;1205;47.984;7.668;2022-09-01T13:22:42;24.40;93.20
2389;DHT22;1205;47.984;7.668;2022-09-01T13:25:11;24.50;93.20
2389;DHT22;1205;47.984;7.668;2022-09-01T13:27:38;24.70;93.30
2389;DHT22;1205;47.984;7.668;2022-09-01T13:30:09;24.70;92.80
2389;DHT22;1205;47.984;7.668;2022-09-01T13:32:35;24.80;93.10
2389;DHT22;1205;47.984;7.668;2022-09-01T13:35:02;24.80;92.80
2389;DHT22;1205;47.984;7.668;2022-09-01T13:37:27;24.70;92.90
2389;DHT22;1205;47.984;7.668;2022-09-01T13:39:53;24.80;93.30
2389;DHT22;1205;47.984;7.668;2022-09-01T13:42:19;24.80;92.40
2389;DHT22;1205;47.984;7.668;2022-09-01T13:44:45;24.80;92.00
2389;DHT22;1205;47.984;7.668;2022-09-01T13:47:11;24.70;92.30
2389;DHT22;1205;47.984;7.668;2022-09-01T13:49:37;24.80;92.30
2389;DHT22;1205;47.984;7.668;2022-09-01T13:52:03;24.70;91.70
2389;DHT22;1205;47.984;7.668;2022-09-01T13:54:29;24.70;92.20
2389;DHT22;1205;47.984;7.668;2022-09-01T13:56:55;24.80;92.40
2389;DHT22;1205;47.984;7.668;2022-09-01T13:59:21;24.90;92.30
2389;DHT22;1205;47.984;7.668;2022-09-01T14:01:46;25.10;92.00
2389;DHT22;1205;47.984;7.668;2022-09-01T14:04:12;25.20;92.10
2389;DHT22;1205;47.984;7.668;2022-09-01T14:06:42;25.20;91.60
2389;DHT22;1205;47.984;7.668;2022-09-01T14:09:13;25.20;91.70
2389;DHT22;1205;47.984;7.668;2022-09-01T14:11:38;25.20;92.00
2389;DHT22;1205;47.984;7.668;2022-09-01T14:14:04;25.30;91.90
2389;DHT22;1205;47.984;7.668;2022-09-01T14:16:30;25.10;91.50
2389;DHT22;1205;47.984;7.668;2022-09-01T14:18:56;25.20;91.70
2389;DHT22;1205;47.984;7.668;2022-09-01T14:21:24;25.20;92.40
2389;DHT22;1205;47.984;7.668;2022-09-01T14:23:51;25.10;91.90
2389;DHT22;1205;47.984;7.668;2022-09-01T14:26:17;25.10;91.60
2389;DHT22;1205;47.984;7.668;2022-09-01T14:28:44;25.00;91.40
2389;DHT22;1205;47.984;7.668;2022-09-01T14:31:14;25.00;91.60
2389;DHT22;1205;47.984;7.668;2022-09-01T14:33:40;25.00;91.20
2389;DHT22;1205;47.984;7.668;2022-09-01T14:36:07;25.10;91.60
2389;DHT22;1205;47.984;7.668;2022-09-01T14:38:33;25.20;91.70
2389;DHT22;1205;47.984;7.668;2022-09-01T14:41:00;25.10;91.20
2389;DHT22;1205;47.984;7.668;2022-09-01T14:43:25;25.10;91.40
2389;DHT22;1205;47.984;7.668;2022-09-01T14:46:05;25.20;90.70
2389;DHT22;1205;47.984;7.668;2022-09-01T14:48:32;25.10;91.00
2389;DHT22;1205;47.984;7.668;2022-09-01T14:50:58;25.10;90.70
2389;DHT22;1205;47.984;7.668;2022-09-01T14:53:25;25.20;91.00
2389;DHT22;1205;47.984;7.668;2022-09-01T14:55:53;25.20;90.90
2389;DHT22;1205;47.984;7.668;2022-09-01T14:58:18;25.20;90.60
2389;DHT22;1205;47.984;7.668;2022-09-01T15:00:44;25.30;89.70
2389;DHT22;1205;47.984;7.668;2022-09-01T15:03:10;25.30;90.30
2389;DHT22;1205;47.984;7.668;2022-09-01T15:05:36;25.40;90.50
2389;DHT22;1205;47.984;7.668;2022-09-01T15:08:02;25.40;90.10
2389;DHT22;1205;47.984;7.668;2022-09-01T15:10:27;25.50;90.20
2389;DHT22;1205;47.984;7.668;2022-09-01T15:12:56;25.50;90.50
2389;DHT22;1205;47.984;7.668;2022-09-01T15:15:23;25.60;90.80
2389;DHT22;1205;47.984;7.668;2022-09-01T15:17:49;25.70;89.00
2389;DHT22;1205;47.984;7.668;2022-09-01T15:20:14;25.70;89.00
2389;DHT22;1205;47.984;7.668;2022-09-01T15:23:00;25.70;87.60
2389;DHT22;1205;47.984;7.668;2022-09-01T15:25:25;25.80;88.90
2389;DHT22;1205;47.984;7.668;2022-09-01T15:27:51;25.80;89.20
2389;DHT22;1205;47.984;7.668;2022-09-01T15:30:17;25.80;89.10
2389;DHT22;1205;47.984;7.668;2022-09-01T15:32:45;25.80;89.50
2389;DHT22;1205;47.984;7.668;2022-09-01T15:35:12;25.80;90.10
2389;DHT22;1205;47.984;7.668;2022-09-01T15:37:38;25.90;88.70
2389;DHT22;1205;47.984;7.668;2022-09-01T15:40:05;25.80;87.50
2389;DHT22;1205;47.984;7.668;2022-09-01T15:42:34;25.70;88.10
2389;DHT22;1205;47.984;7.668;2022-09-01T15:45:02;25.60;88.60
2389;DHT22;1205;47.984;7.668;2022-09-01T15:47:29;25.50;89.20
2389;DHT22;1205;47.984;7.668;2022-09-01T15:49:54;25.40;88.60
2389;DHT22;1205;47.984;7.668;2022-09-01T15:52:20;25.40;89.10
2389;DHT22;1205;47.984;7.668;2022-09-01T15:54:46;25.30;89.40
2389;DHT22;1205;47.984;7.668;2022-09-01T15:57:11;25.40;89.20
2389;DHT22;1205;47.984;7.668;2022-09-01T15:59:37;25.40;88.00
2389;DHT22;1205;47.984;7.668;2022-09-01T16:02:06;25.40;86.30
2389;DHT22;1205;47.984;7.668;2022-09-01T16:04:32;25.40;86.90
2389;DHT22;1205;47.984;7.668;2022-09-01T16:06:58;25.40;86.80
2389;DHT22;1205;47.984;7.668;2022-09-01T16:09:23;25.40;87.60
2389;DHT22;1205;47.984;7.668;2022-09-01T16:11:51;25.40;88.00
2389;DHT22;1205;47.984;7.668;2022-09-01T16:14:17;25.50;87.90
2389;DHT22;1205;47.984;7.668;2022-09-01T16:24:28;25.30;86.60
2389;DHT22;1205;47.984;7.668;2022-09-01T16:26:55;25.20;86.30
2389;DHT22;1205;47.984;7.668;2022-09-01T16:29:37;25.20;86.70
2389;DHT22;1205;47.984;7.668;2022-09-01T16:32:04;25.10;86.70
2389;DHT22;1205;47.984;7.668;2022-09-01T16:34:30;25.10;87.90
2389;DHT22;1205;47.984;7.668;2022-09-01T16:49:01;24.80;87.30
2389;DHT22;1205;47.984;7.668;2022-09-01T16:57:42;24.60;87.70
2389;DHT22;1205;47.984;7.668;2022-09-01T17:00:11;24.60;88.20
2389;DHT22;1205;47.984;7.668;2022-09-01T17:03:05;24.50;87.30
2389;DHT22;1205;47.984;7.668;2022-09-01T17:05:44;24.40;87.50
2389;DHT22;1205;47.984;7.668;2022-09-01T17:13:33;24.20;87.80
2389;DHT22;1205;47.984;7.668;2022-09-01T17:16:14;24.10;88.10
2389;DHT22;1205;47.984;7.668;2022-09-01T17:18:48;24.00;87.50
2389;DHT22;1205;47.984;7.668;2022-09-01T17:27:28;23.90;88.90
2389;DHT22;1205;47.984;7.668;2022-09-01T17:29:55;23.80;88.60
2389;DHT22;1205;47.984;7.668;2022-09-01T17:35:35;23.70;88.10
2389;DHT22;1205;47.984;7.668;2022-09-01T17:38:18;23.70;88.00
2389;DHT22;1205;47.984;7.668;2022-09-01T17:41:15;23.60;88.20
2389;DHT22;1205;47.984;7.668;2022-09-01T17:49:10;23.50;89.50
2389;DHT22;1205;47.984;7.668;2022-09-01T17:57:26;23.30;89.40
2389;DHT22;1205;47.984;7.668;2022-09-01T18:03:36;23.20;90.00
2389;DHT22;1205;47.984;7.668;2022-09-01T18:08:44;23.00;90.30
2389;DHT22;1205;47.984;7.668;2022-09-01T18:16:15;22.90;90.40
2389;DHT22;1205;47.984;7.668;2022-09-01T18:18:44;22.80;90.70
2389;DHT22;1205;47.984;7.668;2022-09-01T18:21:18;22.70;90.60
2389;DHT22;1205;47.984;7.668;2022-09-01T18:23:46;22.60;90.60
2389;DHT22;1205;47.984;7.668;2022-09-01T18:26:14;22.60;90.70
2389;DHT22;1205;47.984;7.668;2022-09-01T18:28:41;22.50;90.70
2389;DHT22;1205;47.984;7.668;2022-09-01T18:34:06;22.40;90.80
2389;DHT22;1205;47.984;7.668;2022-09-01T18:36:58;22.30;91.20
2389;DHT22;1205;47.984;7.668;2022-09-01T18:39:34;22.30;91.20
2389;DHT22;1205;47.984;7.668;2022-09-01T18:50:32;22.00;91.40
2389;DHT22;1205;47.984;7.668;2022-09-01T18:53:16;22.10;91.50
2389;DHT22;1205;47.984;7.668;2022-09-01T19:01:33;21.80;91.90